createdAt,value
2023-04-26T00:01:34.893Z,1.03
2023-04-26T00:04:02.536Z,1.10
2023-04-26T00:06:29.997Z,1.03
2023-04-26T00:08:57.282Z,1.10
2023-04-26T00:11:24.501Z,1.00
2023-04-26T00:13:52.254Z,1.10
2023-04-26T00:16:19.581Z,1.30
2023-04-26T00:18:46.878Z,1.50
2023-04-26T00:21:14.419Z,1.20
2023-04-26T00:23:41.772Z,1.20
2023-04-26T00:26:09.039Z,1.30
2023-04-26T00:28:36.392Z,1.20
2023-04-26T00:31:03.622Z,1.20
2023-04-26T00:33:30.916Z,1.13
2023-04-26T00:35:58.309Z,1.10
2023-04-26T00:38:25.554Z,1.17
2023-04-26T00:40:52.751Z,1.30
2023-04-26T00:43:20.039Z,1.00
2023-04-26T00:45:47.515Z,1.27
2023-04-26T00:48:16.400Z,1.10
2023-04-26T00:50:44.297Z,1.00
2023-04-26T00:53:12.916Z,1.10
2023-04-26T00:55:41.738Z,0.90
2023-04-26T00:58:09.568Z,1.10
2023-04-26T01:00:37.087Z,1.10
2023-04-26T01:03:04.661Z,1.20
2023-04-26T01:05:32.342Z,1.10
2023-04-26T01:08:00.450Z,1.10
2023-04-26T01:10:28.927Z,1.23
2023-04-26T01:12:57.289Z,1.27
2023-04-26T01:15:26.494Z,1.20
2023-04-26T01:17:54.044Z,1.23
2023-04-26T01:20:21.268Z,1.40
2023-04-26T01:22:48.566Z,1.40
2023-04-26T01:25:16.889Z,1.30
2023-04-26T01:27:44.300Z,1.43
2023-04-26T01:30:12.438Z,1.50
2023-04-26T01:32:39.757Z,1.40
2023-04-26T01:35:07.543Z,1.60
2023-04-26T01:37:34.833Z,1.70
2023-04-26T01:40:02.067Z,2.13
2023-04-26T01:42:29.339Z,1.77
2023-04-26T01:44:56.721Z,1.80
2023-04-26T01:47:24.359Z,2.10
2023-04-26T01:49:51.713Z,2.60
2023-04-26T01:52:18.954Z,5.13
2023-04-26T01:54:46.191Z,5.13
2023-04-26T01:57:13.426Z,6.63
2023-04-26T01:59:40.931Z,6.93
2023-04-26T02:02:08.374Z,7.27
2023-04-26T02:04:36.349Z,6.73
2023-04-26T02:07:03.606Z,4.83
2023-04-26T02:09:30.858Z,4.50
2023-04-26T02:11:58.127Z,3.97
2023-04-26T02:14:25.334Z,4.30
2023-04-26T02:16:52.600Z,3.10
2023-04-26T02:19:19.970Z,2.47
2023-04-26T02:21:58.503Z,2.43
2023-04-26T02:24:26.214Z,3.50
2023-04-26T02:26:53.512Z,3.33
2023-04-26T02:29:26.890Z,3.37
2023-04-26T02:31:58.623Z,3.23
2023-04-26T02:34:26.261Z,2.63
2023-04-26T02:36:53.520Z,2.03
2023-04-26T02:39:20.757Z,2.00
2023-04-26T02:41:47.983Z,1.87
2023-04-26T02:44:15.312Z,1.70
2023-04-26T02:46:42.773Z,1.83
2023-04-26T02:49:10.179Z,2.17
2023-04-26T02:51:37.779Z,1.73
2023-04-26T02:54:06.959Z,1.70
2023-04-26T02:56:34.508Z,1.70
2023-04-26T02:59:01.765Z,1.30
2023-04-26T03:01:29.075Z,1.70
2023-04-26T03:03:56.457Z,1.80
2023-04-26T03:06:23.883Z,1.90
2023-04-26T03:08:51.395Z,1.67
2023-04-26T03:11:18.785Z,1.60
2023-04-26T03:13:45.980Z,1.70
2023-04-26T03:16:13.447Z,1.63
2023-04-26T03:18:40.782Z,1.60
2023-04-26T03:21:08.091Z,1.50
2023-04-26T03:23:35.538Z,1.67
2023-04-26T03:26:02.997Z,1.50
2023-04-26T03:28:30.693Z,1.50
2023-04-26T03:30:59.675Z,1.20
2023-04-26T03:33:27.482Z,1.40
2023-04-26T03:35:54.719Z,1.50
2023-04-26T03:38:21.958Z,1.57
2023-04-26T03:40:49.478Z,1.40
2023-04-26T03:43:16.691Z,1.53
2023-04-26T03:45:48.065Z,1.70
2023-04-26T03:48:16.056Z,1.50
2023-04-26T03:50:43.716Z,1.93
2023-04-26T03:53:15.193Z,1.80
2023-04-26T03:55:42.571Z,2.20
2023-04-26T03:58:09.944Z,1.63
2023-04-26T04:00:41.381Z,1.50
2023-04-26T04:03:08.897Z,2.73
2023-04-26T04:05:36.729Z,2.60
2023-04-26T04:08:04.898Z,2.00
2023-04-26T04:10:32.228Z,2.40
2023-04-26T04:12:59.679Z,3.37
2023-04-26T04:15:27.143Z,4.40
2023-04-26T04:17:54.669Z,4.53
2023-04-26T04:20:22.036Z,4.13
2023-04-26T04:22:49.349Z,4.07
2023-04-26T04:25:16.587Z,3.77
2023-04-26T04:27:43.891Z,6.30
2023-04-26T04:30:11.766Z,8.67
2023-04-26T04:32:39.007Z,9.40
2023-04-26T04:35:07.543Z,8.07
2023-04-26T04:37:34.893Z,7.90
2023-04-26T04:40:02.410Z,8.47
2023-04-26T04:42:29.686Z,12.57
2023-04-26T04:44:57.204Z,10.17
2023-04-26T04:47:24.520Z,8.87
2023-04-26T04:49:51.796Z,8.00
2023-04-26T04:52:19.270Z,7.00
2023-04-26T04:54:46.726Z,10.47
2023-04-26T04:57:14.263Z,7.10
2023-04-26T04:59:41.909Z,6.87
2023-04-26T05:02:09.243Z,6.23
2023-04-26T05:04:37.774Z,5.87
2023-04-26T05:07:05.448Z,7.00
2023-04-26T05:09:32.675Z,6.80
2023-04-26T05:11:59.955Z,6.03
2023-04-26T05:14:27.639Z,6.07
2023-04-26T05:16:55.023Z,5.03
2023-04-26T05:19:22.773Z,4.90
2023-04-26T05:21:50.031Z,4.87
2023-04-26T05:24:17.286Z,13.03
2023-04-26T05:26:44.600Z,6.60
2023-04-26T05:29:11.988Z,7.33
2023-04-26T05:31:39.269Z,10.07
2023-04-26T05:34:06.526Z,8.17
2023-04-26T05:36:33.858Z,6.17
2023-04-26T05:39:01.131Z,5.07
2023-04-26T05:41:28.386Z,4.17
2023-04-26T05:43:55.705Z,3.70
2023-04-26T05:46:23.352Z,2.30
2023-04-26T05:48:50.706Z,2.80
2023-04-26T05:51:17.890Z,4.43
2023-04-26T05:53:45.124Z,4.67
2023-04-26T05:56:12.374Z,5.93
2023-04-26T05:58:39.727Z,7.43
2023-04-26T06:01:06.982Z,8.07
2023-04-26T06:03:34.629Z,11.60
2023-04-26T06:06:02.313Z,11.23
2023-04-26T06:08:29.743Z,11.40
2023-04-26T06:10:56.985Z,14.00
2023-04-26T06:13:24.365Z,9.70
2023-04-26T06:15:54.670Z,7.23
2023-04-26T06:18:22.073Z,4.47
2023-04-26T06:20:49.414Z,6.70
2023-04-26T06:25:44.192Z,5.23
2023-04-26T06:28:13.071Z,4.37
2023-04-26T06:30:40.434Z,1.47
2023-04-26T06:33:07.735Z,1.40
2023-04-26T06:35:43.119Z,1.30
2023-04-26T06:38:10.420Z,1.63
2023-04-26T06:40:37.638Z,1.77
2023-04-26T06:43:05.104Z,7.07
2023-04-26T06:45:32.650Z,2.30
2023-04-26T06:47:59.993Z,2.10
2023-04-26T06:50:27.864Z,1.60
2023-04-26T06:52:55.440Z,1.20
2023-04-26T06:55:22.931Z,2.63
2023-04-26T06:57:50.788Z,1.80
2023-04-26T07:00:18.228Z,1.23
2023-04-26T07:02:46.119Z,1.50
2023-04-26T07:05:13.878Z,1.10
2023-04-26T07:07:41.357Z,1.23
2023-04-26T07:10:10.448Z,1.10
2023-04-26T07:12:37.756Z,1.07
2023-04-26T07:15:05.866Z,1.00
2023-04-26T07:17:33.462Z,1.13
2023-04-26T07:20:00.895Z,1.30
2023-04-26T07:22:28.645Z,0.87
2023-04-26T07:24:55.997Z,1.40
2023-04-26T07:27:24.153Z,1.00
2023-04-26T07:29:54.985Z,1.00
2023-04-26T07:32:22.672Z,1.50
2023-04-26T07:34:49.959Z,0.80
2023-04-26T07:37:17.270Z,1.00
2023-04-26T07:39:44.690Z,1.30
2023-04-26T07:42:12.191Z,2.00
2023-04-26T07:44:39.434Z,1.30
2023-04-26T07:47:13.015Z,0.93
2023-04-26T07:49:40.685Z,1.33
2023-04-26T07:52:09.697Z,1.20
2023-04-26T07:54:37.069Z,1.67
2023-04-26T07:57:04.518Z,1.10
2023-04-26T07:59:32.415Z,2.40
2023-04-26T08:01:59.638Z,0.90
2023-04-26T08:04:34.785Z,1.03
2023-04-26T08:07:02.406Z,1.20
2023-04-26T08:09:30.330Z,1.30
2023-04-26T08:11:58.264Z,1.10
2023-04-26T08:14:25.542Z,1.03
2023-04-26T08:16:52.870Z,1.57
2023-04-26T08:19:20.163Z,1.10
2023-04-26T08:21:47.556Z,1.40
2023-04-26T08:24:14.871Z,1.47
2023-04-26T08:26:42.322Z,1.50
2023-04-26T08:29:10.177Z,1.53
2023-04-26T08:31:37.483Z,1.30
2023-04-26T08:34:04.772Z,1.10
2023-04-26T08:36:35.919Z,1.10
2023-04-26T08:39:03.830Z,1.13
2023-04-26T08:41:37.795Z,1.30
2023-04-26T08:44:09.162Z,1.03
2023-04-26T08:47:36.881Z,1.57
2023-04-26T08:50:05.915Z,1.10
2023-04-26T08:52:35.349Z,1.47
2023-04-26T08:55:05.205Z,1.10
2023-04-26T08:57:33.170Z,1.20
2023-04-26T09:00:03.299Z,1.40
2023-04-26T09:02:31.148Z,1.00
2023-04-26T09:04:58.722Z,1.30
2023-04-26T09:07:51.104Z,1.30
2023-04-26T09:10:22.262Z,1.03
2023-04-26T09:12:53.917Z,1.10
2023-04-26T09:15:23.270Z,1.03
2023-04-26T09:17:51.171Z,1.13
2023-04-26T09:20:31.414Z,1.00
2023-04-26T09:23:07.569Z,1.00
2023-04-26T09:25:36.029Z,1.20
2023-04-26T09:28:18.915Z,1.23
2023-04-26T09:30:46.824Z,2.60
2023-04-26T09:33:14.387Z,3.97
2023-04-26T09:35:44.558Z,4.53
2023-04-26T09:38:15.269Z,1.43
2023-04-26T09:40:45.977Z,1.30
2023-04-26T09:43:18.872Z,1.20
2023-04-26T09:45:50.722Z,1.07
2023-04-26T09:48:34.179Z,1.10
2023-04-26T09:51:04.213Z,1.17
2023-04-26T09:53:42.212Z,1.20
2023-04-26T09:56:20.890Z,1.40
2023-04-26T09:58:48.077Z,1.40
2023-04-26T10:01:17.364Z,2.10
2023-04-26T10:03:45.610Z,1.90
2023-04-26T10:06:13.824Z,2.53
2023-04-26T10:08:41.575Z,1.00
2023-04-26T10:11:09.610Z,2.23
2023-04-26T10:13:37.886Z,1.33
2023-04-26T10:16:06.315Z,1.27
2023-04-26T10:18:34.238Z,3.03
2023-04-26T10:21:19.794Z,2.20
2023-04-26T10:23:49.710Z,1.30
2023-04-26T10:26:55.625Z,1.67
2023-04-26T10:29:25.525Z,1.27
2023-04-26T10:32:02.378Z,1.10
2023-04-26T10:34:31.943Z,1.20
2023-04-26T10:37:18.097Z,1.20
2023-04-26T10:39:47.430Z,1.00
2023-04-26T10:42:29.353Z,1.10
2023-04-26T10:44:58.867Z,1.27
2023-04-26T10:47:34.937Z,1.03
2023-04-26T10:50:06.313Z,1.33
2023-04-26T10:52:34.919Z,1.17
2023-04-26T10:55:02.535Z,1.20
2023-04-26T10:57:52.973Z,1.30
2023-04-26T11:00:28.565Z,1.27
2023-04-26T11:03:03.689Z,1.47
2023-04-26T11:05:51.802Z,1.30
2023-04-26T11:08:31.371Z,1.37
2023-04-26T11:11:12.249Z,1.33
2023-04-26T11:13:42.437Z,1.30
2023-04-26T11:16:12.475Z,1.50
2023-04-26T11:18:47.790Z,1.20
2023-04-26T11:21:15.132Z,1.93
2023-04-26T11:23:42.436Z,1.27
2023-04-26T11:26:09.881Z,1.40
2023-04-26T11:28:42.227Z,2.10
2023-04-26T11:31:09.956Z,0.90
2023-04-26T11:33:37.678Z,1.97
2023-04-26T11:36:05.639Z,1.20
2023-04-26T11:38:33.183Z,1.60
2023-04-26T11:41:04.553Z,1.20
2023-04-26T11:43:39.785Z,1.20
2023-04-26T11:46:09.192Z,1.17
2023-04-26T11:48:38.550Z,1.00
2023-04-26T11:51:08.252Z,1.20
2023-04-26T11:53:44.828Z,1.10
2023-04-26T11:56:17.234Z,1.40
2023-04-26T11:58:48.505Z,1.70
2023-04-26T12:01:28.133Z,2.50
2023-04-26T12:03:57.922Z,1.30
2023-04-26T12:06:41.777Z,1.40
2023-04-26T12:09:09.851Z,1.73
2023-04-26T12:11:38.038Z,2.23
2023-04-26T12:14:05.949Z,1.50
2023-04-26T12:16:36.548Z,1.10
2023-04-26T12:19:08.109Z,1.30
2023-04-26T12:21:43.464Z,1.30
2023-04-26T12:24:24.383Z,1.20
2023-04-26T12:26:51.836Z,1.47
2023-04-26T12:29:19.523Z,1.40
2023-04-26T12:31:47.493Z,1.30
2023-04-26T12:34:14.857Z,1.20
2023-04-26T12:36:42.613Z,1.10
2023-04-26T12:39:11.757Z,1.67
2023-04-26T12:41:39.618Z,1.27
2023-04-26T12:44:08.459Z,1.23
2023-04-26T12:46:36.686Z,1.50
2023-04-26T12:49:04.997Z,1.33
2023-04-26T12:51:32.589Z,1.10
2023-04-26T12:53:59.891Z,1.27
2023-04-26T12:56:27.324Z,1.20
2023-04-26T12:58:54.881Z,1.10
2023-04-26T13:01:22.235Z,1.30
2023-04-26T13:03:49.826Z,1.23
2023-04-26T13:06:17.558Z,1.00
2023-04-26T13:08:44.901Z,1.40
2023-04-26T13:11:12.324Z,1.23
2023-04-26T13:13:43.641Z,1.10
2023-04-26T13:16:12.930Z,1.10
2023-04-26T13:18:41.322Z,1.20
2023-04-26T13:21:08.666Z,1.50
2023-04-26T13:23:36.175Z,1.30
2023-04-26T13:26:03.515Z,1.40
2023-04-26T13:28:30.799Z,1.57
2023-04-26T13:30:58.367Z,1.50
2023-04-26T13:33:25.929Z,1.47
2023-04-26T13:35:53.295Z,1.30
2023-04-26T13:38:20.567Z,1.17
2023-04-26T13:40:47.965Z,1.20
2023-04-26T13:43:15.222Z,1.20
2023-04-26T13:45:43.306Z,1.20
2023-04-26T13:48:10.625Z,1.20
2023-04-26T13:50:38.037Z,1.47
2023-04-26T13:53:05.511Z,1.80
2023-04-26T13:55:32.880Z,1.10
2023-04-26T13:58:00.147Z,1.10
2023-04-26T14:00:27.475Z,1.30
2023-04-26T14:02:55.046Z,1.33
2023-04-26T14:05:22.868Z,1.40
2023-04-26T14:07:50.232Z,1.40
2023-04-26T14:10:17.808Z,1.60
2023-04-26T14:12:45.114Z,2.10
2023-04-26T14:15:12.989Z,1.40
2023-04-26T14:17:40.336Z,1.20
2023-04-26T14:20:12.047Z,1.50
2023-04-26T14:22:39.373Z,2.83
2023-04-26T14:25:07.041Z,2.93
2023-04-26T14:27:35.621Z,2.63
2023-04-26T14:30:03.275Z,1.90
2023-04-26T14:32:30.510Z,1.40
2023-04-26T14:34:58.220Z,1.30
2023-04-26T14:37:25.527Z,1.40
2023-04-26T14:39:53.010Z,1.37
2023-04-26T14:42:20.349Z,1.57
2023-04-26T14:44:47.701Z,1.33
2023-04-26T14:47:15.024Z,1.20
2023-04-26T14:49:42.307Z,1.10
2023-04-26T14:52:09.626Z,1.33
2023-04-26T14:54:40.674Z,1.40
2023-04-26T14:57:08.486Z,1.50
2023-04-26T14:59:37.117Z,1.30
2023-04-26T15:02:04.549Z,1.30
2023-04-26T15:04:32.320Z,1.30
2023-04-26T15:06:59.943Z,1.37
2023-04-26T15:09:29.008Z,1.60
2023-04-26T15:11:57.661Z,1.47
2023-04-26T15:14:25.130Z,1.20
2023-04-26T15:16:52.511Z,1.80
2023-04-26T15:19:19.820Z,4.47
2023-04-26T15:21:49.256Z,1.73
2023-04-26T15:24:16.786Z,1.63
2023-04-26T15:26:44.101Z,2.20
2023-04-26T15:29:11.563Z,2.50
2023-04-26T15:31:38.995Z,3.33
2023-04-26T15:34:06.468Z,2.17
2023-04-26T15:36:33.738Z,1.92
2023-04-26T15:39:01.103Z,2.80
2023-04-26T15:41:28.555Z,1.53
2023-04-26T15:43:56.129Z,1.97
2023-04-26T15:46:23.541Z,2.05
2023-04-26T15:48:50.980Z,2.10
2023-04-26T15:51:20.401Z,1.90
2023-04-26T15:53:47.840Z,1.70
2023-04-26T15:56:16.864Z,2.13
2023-04-26T15:58:48.060Z,1.65
2023-04-26T16:01:17.180Z,1.70
2023-04-26T16:03:47.628Z,1.30
2023-04-26T16:06:15.446Z,1.60
2023-04-26T16:08:42.851Z,1.67
2023-04-26T16:11:10.240Z,1.83
2023-04-26T16:13:37.597Z,1.50
2023-04-26T16:16:08.512Z,1.40
2023-04-26T16:18:35.942Z,1.47
2023-04-26T16:21:07.444Z,1.50
2023-04-26T16:23:34.804Z,1.20
2023-04-26T16:26:03.138Z,1.40
2023-04-26T16:28:30.713Z,1.60
2023-04-26T16:30:58.390Z,1.40
2023-04-26T16:33:26.148Z,1.73
2023-04-26T16:35:55.012Z,1.67
2023-04-26T16:38:23.077Z,2.27
2023-04-26T16:40:59.856Z,2.17
2023-04-26T16:43:31.989Z,2.00
2023-04-26T16:46:07.381Z,1.80
2023-04-26T16:48:37.978Z,1.00
2023-04-26T16:51:08.152Z,1.10
2023-04-26T16:53:41.279Z,1.50
2023-04-26T16:56:08.857Z,1.57
2023-04-26T16:58:36.292Z,1.20
2023-04-26T17:01:03.767Z,1.10
2023-04-26T17:03:31.306Z,1.20
2023-04-26T17:06:01.885Z,1.23
2023-04-26T17:08:30.520Z,1.10
2023-04-26T17:10:57.920Z,1.37
2023-04-26T17:13:25.150Z,1.63
2023-04-26T17:15:54.626Z,1.60
2023-04-26T17:18:21.922Z,1.67
2023-04-26T17:20:49.841Z,1.93
2023-04-26T17:23:17.313Z,1.43
2023-04-26T17:25:45.041Z,1.60
2023-04-26T17:28:12.403Z,1.40
2023-04-26T17:30:43.151Z,3.80
2023-04-26T17:33:10.684Z,2.20
2023-04-26T17:35:38.376Z,3.93
2023-04-26T17:38:06.928Z,14.83
2023-04-26T17:40:34.382Z,4.00
2023-04-26T17:43:02.122Z,2.00
2023-04-26T17:45:30.592Z,1.70
2023-04-26T17:47:58.262Z,1.67
2023-04-26T17:50:25.508Z,1.40
2023-04-26T17:52:52.915Z,1.50
2023-04-26T17:55:20.305Z,1.87
2023-04-26T17:57:47.768Z,1.70
2023-04-26T18:00:15.611Z,1.77
2023-04-26T18:02:48.899Z,1.80
2023-04-26T18:05:20.790Z,1.83
2023-04-26T18:07:50.817Z,1.70
2023-04-26T18:10:18.212Z,1.60
2023-04-26T18:12:45.633Z,1.80
2023-04-26T18:15:14.260Z,1.83
2023-04-26T18:17:42.151Z,1.90
2023-04-26T18:20:10.162Z,2.20
2023-04-26T18:22:37.411Z,1.80
2023-04-26T18:25:08.636Z,2.30
2023-04-26T18:27:35.907Z,2.40
2023-04-26T18:30:04.701Z,2.03
2023-04-26T18:32:32.368Z,2.20
2023-04-26T18:35:00.955Z,2.30
2023-04-26T18:37:28.570Z,2.33
2023-04-26T18:39:55.882Z,2.60
2023-04-26T18:42:23.128Z,2.67
2023-04-26T18:44:50.586Z,2.50
2023-04-26T18:47:17.919Z,2.00
2023-04-26T18:49:45.165Z,2.40
2023-04-26T18:52:12.525Z,2.37
2023-04-26T18:54:39.794Z,2.57
2023-04-26T18:57:07.070Z,2.40
2023-04-26T18:59:34.333Z,2.30
2023-04-26T19:02:01.775Z,2.40
2023-04-26T19:04:29.296Z,2.80
2023-04-26T19:06:56.939Z,2.80
2023-04-26T19:09:24.354Z,2.83
2023-04-26T19:11:51.624Z,2.33
2023-04-26T19:14:19.064Z,2.20
2023-04-26T19:16:46.570Z,2.60
2023-04-26T19:19:13.851Z,2.60
2023-04-26T19:21:41.104Z,2.30
2023-04-26T19:24:08.661Z,2.17
2023-04-26T19:26:37.845Z,2.40
2023-04-26T19:29:07.004Z,2.60
2023-04-26T19:31:34.876Z,2.83
2023-04-26T19:34:02.703Z,2.73
2023-04-26T19:36:30.220Z,2.90
2023-04-26T19:38:58.273Z,3.07
2023-04-26T19:41:28.264Z,3.07
2023-04-26T19:43:56.092Z,3.00
2023-04-26T19:46:23.887Z,2.53
2023-04-26T19:48:51.598Z,2.30
2023-04-26T19:51:19.227Z,2.50
2023-04-26T19:53:46.828Z,2.60
2023-04-26T19:56:14.549Z,2.60
2023-04-26T19:58:42.250Z,2.60
2023-04-26T20:01:10.249Z,2.37
2023-04-26T20:03:37.867Z,2.67
2023-04-26T20:06:05.754Z,2.70
2023-04-26T20:08:34.621Z,2.50
2023-04-26T20:11:04.822Z,3.00
2023-04-26T20:13:32.769Z,2.40
2023-04-26T20:16:00.184Z,2.80
2023-04-26T20:18:27.603Z,3.30
2023-04-26T20:20:54.960Z,3.00
2023-04-26T20:23:22.249Z,2.80
2023-04-26T20:25:51.308Z,2.73
2023-04-26T20:28:18.963Z,2.57
2023-04-26T20:30:46.565Z,2.60
2023-04-26T20:33:14.023Z,2.57
2023-04-26T20:35:41.576Z,2.67
2023-04-26T20:38:09.252Z,2.47
2023-04-26T20:40:36.806Z,2.63
2023-04-26T20:43:04.569Z,2.67
2023-04-26T20:45:32.399Z,2.87
2023-04-26T20:48:00.133Z,2.90
2023-04-26T20:50:27.982Z,2.53
2023-04-26T20:52:55.719Z,2.77
2023-04-26T20:55:23.383Z,2.53
2023-04-26T20:57:51.070Z,2.67
2023-04-26T21:00:19.030Z,2.57
2023-04-26T21:02:46.765Z,2.50
2023-04-26T21:05:14.481Z,2.37
2023-04-26T21:07:42.171Z,2.40
2023-04-26T21:10:10.102Z,3.20
2023-04-26T21:12:37.513Z,2.37
2023-04-26T21:15:05.593Z,5.73
2023-04-26T21:17:32.917Z,29.03
2023-04-26T21:20:00.299Z,49.67
2023-04-26T21:22:27.723Z,14.83
2023-04-26T21:24:55.002Z,5.33
2023-04-26T21:27:22.411Z,4.80
2023-04-26T21:29:49.928Z,3.10
2023-04-26T21:32:17.515Z,2.50
2023-04-26T21:34:44.927Z,2.20
2023-04-26T21:37:12.592Z,1.93
2023-04-26T21:39:40.332Z,2.53
2023-04-26T21:42:07.985Z,2.90
2023-04-26T21:44:35.714Z,4.23
2023-04-26T21:47:03.467Z,3.40
2023-04-26T21:49:31.106Z,2.90
2023-04-26T21:51:58.692Z,2.17
2023-04-26T21:54:26.493Z,2.30
2023-04-26T21:56:54.119Z,2.20
2023-04-26T21:59:21.981Z,2.30
2023-04-26T22:01:49.711Z,1.90
2023-04-26T22:04:18.256Z,2.33
2023-04-26T22:06:46.097Z,4.27
2023-04-26T22:09:13.856Z,5.17
2023-04-26T22:11:41.655Z,3.90
2023-04-26T22:14:09.307Z,2.50
2023-04-26T22:16:36.994Z,3.90
2023-04-26T22:19:13.874Z,3.33
2023-04-26T22:21:41.947Z,2.27
2023-04-26T22:24:09.765Z,2.00
2023-04-26T22:26:37.395Z,2.20
2023-04-26T22:29:04.998Z,2.30
2023-04-26T22:31:32.604Z,2.10
2023-04-26T22:34:00.199Z,2.00
2023-04-26T22:36:27.894Z,2.20
2023-04-26T22:38:55.417Z,2.20
2023-04-26T22:41:23.042Z,2.00
2023-04-26T22:43:52.748Z,1.93
2023-04-26T22:46:20.936Z,2.23
2023-04-26T22:48:48.665Z,2.10
2023-04-26T22:51:16.361Z,2.30
2023-04-26T22:53:43.966Z,2.20
2023-04-26T22:56:11.785Z,2.37
2023-04-26T22:58:42.844Z,2.10
2023-04-26T23:01:10.788Z,2.10
2023-04-26T23:03:38.633Z,2.10
2023-04-26T23:06:06.745Z,2.27
2023-04-26T23:08:34.561Z,2.20
2023-04-26T23:11:06.398Z,2.03
2023-04-26T23:13:34.416Z,2.00
2023-04-26T23:16:02.717Z,2.23
2023-04-26T23:18:30.679Z,2.10
2023-04-26T23:20:58.307Z,2.10
2023-04-26T23:23:26.863Z,2.20
2023-04-26T23:25:54.421Z,1.90
2023-04-26T23:28:21.969Z,2.20
2023-04-26T23:30:49.830Z,2.10
2023-04-26T23:33:17.440Z,2.20
2023-04-26T23:35:45.039Z,2.30
2023-04-26T23:38:12.992Z,2.57
2023-04-26T23:40:40.648Z,2.27
2023-04-26T23:43:08.638Z,2.07
2023-04-26T23:45:36.658Z,1.90
2023-04-26T23:48:04.551Z,2.13
2023-04-26T23:50:32.267Z,2.13
2023-04-26T23:53:00.065Z,2.20
2023-04-26T23:55:27.788Z,2.23
2023-04-26T23:57:55.352Z,2.07
